sensor_id;sensor_type;location;lat;lon;timestamp;temperature;humidity
29813;DHT22;16707;48.106;11.548;2023-12-07T00:02:14;2.70;99.90
29813;DHT22;16707;48.106;11.548;2023-12-07T00:04:40;2.80;99.90
29813;DHT22;16707;48.106;11.548;2023-12-07T00:07:09;2.60;99.90
29813;DHT22;16707;48.106;11.548;2023-12-07T00:09:35;2.50;99.90
29813;DHT22;16707;48.106;11.548;2023-12-07T00:12:02;2.50;99.90
29813;DHT22;16707;48.106;11.548;2023-12-07T00:14:29;2.40;99.90
29813;DHT22;16707;48.106;11.548;2023-12-07T00:16:56;2.30;99.90
29813;DHT22;16707;48.106;11.548;2023-12-07T00:19:22;2.20;99.90
29813;DHT22;16707;48.106;11.548;2023-12-07T00:21:49;2.20;99.90
29813;DHT22;16707;48.106;11.548;2023-12-07T00:24:17;2.10;99.90
29813;DHT22;16707;48.106;11.548;2023-12-07T00:26:44;2.10;99.90
29813;DHT22;16707;48.106;11.548;2023-12-07T00:29:11;1.90;99.90
29813;DHT22;16707;48.106;11.548;2023-12-07T00:31:37;1.90;99.90
29813;DHT22;16707;48.106;11.548;2023-12-07T00:34:04;1.90;99.90
29813;DHT22;16707;48.106;11.548;2023-12-07T00:36:31;1.80;99.90
29813;DHT22;16707;48.106;11.548;2023-12-07T00:38:58;1.70;99.90
29813;DHT22;16707;48.106;11.548;2023-12-07T00:41:26;1.60;99.90
29813;DHT22;16707;48.106;11.548;2023-12-07T00:43:52;1.50;99.90
29813;DHT22;16707;48.106;11.548;2023-12-07T00:46:20;1.30;99.90
29813;DHT22;16707;48.106;11.548;2023-12-07T00:48:46;1.30;99.90
29813;DHT22;16707;48.106;11.548;2023-12-07T00:51:13;1.10;99.90
29813;DHT22;16707;48.106;11.548;2023-12-07T00:53:40;1.00;99.90
29813;DHT22;16707;48.106;11.548;2023-12-07T00:56:07;1.00;99.90
29813;DHT22;16707;48.106;11.548;2023-12-07T00:58:36;1.00;99.90
29813;DHT22;16707;48.106;11.548;2023-12-07T01:01:03;0.90;99.90
29813;DHT22;16707;48.106;11.548;2023-12-07T01:03:30;0.90;99.90
29813;DHT22;16707;48.106;11.548;2023-12-07T01:05:57;0.90;99.90
29813;DHT22;16707;48.106;11.548;2023-12-07T01:08:24;0.90;99.90
29813;DHT22;16707;48.106;11.548;2023-12-07T01:10:50;0.90;99.90
29813;DHT22;16707;48.106;11.548;2023-12-07T01:13:17;1.00;99.90
29813;DHT22;16707;48.106;11.548;2023-12-07T01:15:45;0.90;99.90
29813;DHT22;16707;48.106;11.548;2023-12-07T01:18:12;0.80;99.90
29813;DHT22;16707;48.106;11.548;2023-12-07T01:20:38;0.70;99.90
29813;DHT22;16707;48.106;11.548;2023-12-07T01:23:05;0.50;99.90
29813;DHT22;16707;48.106;11.548;2023-12-07T01:25:34;0.50;99.90
29813;DHT22;16707;48.106;11.548;2023-12-07T01:28:00;0.40;99.90
29813;DHT22;16707;48.106;11.548;2023-12-07T01:30:27;0.50;99.90
29813;DHT22;16707;48.106;11.548;2023-12-07T01:32:55;0.60;99.90
29813;DHT22;16707;48.106;11.548;2023-12-07T01:35:22;0.50;99.90
29813;DHT22;16707;48.106;11.548;2023-12-07T01:37:49;0.50;99.90
29813;DHT22;16707;48.106;11.548;2023-12-07T01:40:15;0.50;99.90
29813;DHT22;16707;48.106;11.548;2023-12-07T01:42:49;0.50;99.90
29813;DHT22;16707;48.106;11.548;2023-12-07T01:45:15;0.40;99.90
29813;DHT22;16707;48.106;11.548;2023-12-07T01:47:42;0.30;99.90
29813;DHT22;16707;48.106;11.548;2023-12-07T01:50:11;0.30;99.90
29813;DHT22;16707;48.106;11.548;2023-12-07T01:52:41;0.20;99.90
29813;DHT22;16707;48.106;11.548;2023-12-07T01:55:09;0.10;99.90
29813;DHT22;16707;48.106;11.548;2023-12-07T01:57:36;0.10;99.90
29813;DHT22;16707;48.106;11.548;2023-12-07T02:00:04;0.10;99.90
29813;DHT22;16707;48.106;11.548;2023-12-07T02:02:31;0.10;99.90
29813;DHT22;16707;48.106;11.548;2023-12-07T02:04:58;0.10;99.90
29813;DHT22;16707;48.106;11.548;2023-12-07T02:07:26;0.10;99.90
29813;DHT22;16707;48.106;11.548;2023-12-07T02:09:53;0.10;99.90
29813;DHT22;16707;48.106;11.548;2023-12-07T02:12:20;0.20;99.90
29813;DHT22;16707;48.106;11.548;2023-12-07T02:14:47;0.30;99.90
29813;DHT22;16707;48.106;11.548;2023-12-07T02:17:14;0.30;99.90
29813;DHT22;16707;48.106;11.548;2023-12-07T02:19:48;0.40;99.90
29813;DHT22;16707;48.106;11.548;2023-12-07T02:22:17;0.30;99.90
29813;DHT22;16707;48.106;11.548;2023-12-07T02:24:54;0.30;99.90
29813;DHT22;16707;48.106;11.548;2023-12-07T02:27:37;0.30;99.90
29813;DHT22;16707;48.106;11.548;2023-12-07T02:30:04;0.40;99.90
29813;DHT22;16707;48.106;11.548;2023-12-07T02:32:31;0.40;99.90
29813;DHT22;16707;48.106;11.548;2023-12-07T02:34:59;0.50;99.90
29813;DHT22;16707;48.106;11.548;2023-12-07T02:37:27;0.50;99.90
29813;DHT22;16707;48.106;11.548;2023-12-07T02:39:54;0.60;99.90
29813;DHT22;16707;48.106;11.548;2023-12-07T02:42:22;0.50;99.90
29813;DHT22;16707;48.106;11.548;2023-12-07T02:44:51;0.50;99.90
29813;DHT22;16707;48.106;11.548;2023-12-07T02:47:18;0.40;99.90
29813;DHT22;16707;48.106;11.548;2023-12-07T02:49:45;0.40;99.90
29813;DHT22;16707;48.106;11.548;2023-12-07T02:52:12;0.50;99.90
29813;DHT22;16707;48.106;11.548;2023-12-07T02:54:38;0.50;99.90
29813;DHT22;16707;48.106;11.548;2023-12-07T02:57:05;0.50;99.90
29813;DHT22;16707;48.106;11.548;2023-12-07T02:59:32;0.50;99.90
29813;DHT22;16707;48.106;11.548;2023-12-07T03:02:00;0.30;99.90
29813;DHT22;16707;48.106;11.548;2023-12-07T03:04:27;0.20;99.90
29813;DHT22;16707;48.106;11.548;2023-12-07T03:06:53;0.20;99.90
29813;DHT22;16707;48.106;11.548;2023-12-07T03:09:20;0.20;99.90
29813;DHT22;16707;48.106;11.548;2023-12-07T03:11:47;0.20;99.90
29813;DHT22;16707;48.106;11.548;2023-12-07T03:14:14;0.30;99.90
29813;DHT22;16707;48.106;11.548;2023-12-07T03:16:41;0.40;99.90
29813;DHT22;16707;48.106;11.548;2023-12-07T03:19:09;0.50;99.90
29813;DHT22;16707;48.106;11.548;2023-12-07T03:21:38;0.50;99.90
29813;DHT22;16707;48.106;11.548;2023-12-07T03:24:06;0.60;99.90
29813;DHT22;16707;48.106;11.548;2023-12-07T03:26:32;0.70;99.90
29813;DHT22;16707;48.106;11.548;2023-12-07T03:28:59;0.80;99.90
29813;DHT22;16707;48.106;11.548;2023-12-07T03:31:26;0.80;99.90
29813;DHT22;16707;48.106;11.548;2023-12-07T03:33:53;0.80;99.90
29813;DHT22;16707;48.106;11.548;2023-12-07T03:36:21;0.90;99.90
29813;DHT22;16707;48.106;11.548;2023-12-07T03:38:48;0.90;99.90
29813;DHT22;16707;48.106;11.548;2023-12-07T03:41:15;1.00;99.90
29813;DHT22;16707;48.106;11.548;2023-12-07T03:43:41;1.10;99.90
29813;DHT22;16707;48.106;11.548;2023-12-07T03:46:08;1.10;99.90
29813;DHT22;16707;48.106;11.548;2023-12-07T03:48:35;1.20;99.90
29813;DHT22;16707;48.106;11.548;2023-12-07T03:51:02;1.10;99.90
29813;DHT22;16707;48.106;11.548;2023-12-07T03:53:30;1.10;99.90
29813;DHT22;16707;48.106;11.548;2023-12-07T03:55:57;1.10;99.90
29813;DHT22;16707;48.106;11.548;2023-12-07T03:58:24;1.10;99.90
29813;DHT22;16707;48.106;11.548;2023-12-07T04:00:50;1.00;99.90
29813;DHT22;16707;48.106;11.548;2023-12-07T04:03:17;1.00;99.90
29813;DHT22;16707;48.106;11.548;2023-12-07T04:05:44;1.00;99.90
29813;DHT22;16707;48.106;11.548;2023-12-07T04:08:10;1.00;99.90
29813;DHT22;16707;48.106;11.548;2023-12-07T04:10:39;1.00;99.90
29813;DHT22;16707;48.106;11.548;2023-12-07T04:13:06;1.00;99.90
29813;DHT22;16707;48.106;11.548;2023-12-07T04:15:32;1.00;99.90
29813;DHT22;16707;48.106;11.548;2023-12-07T04:17:59;0.90;99.90
29813;DHT22;16707;48.106;11.548;2023-12-07T04:20:26;0.70;99.90
29813;DHT22;16707;48.106;11.548;2023-12-07T04:22:54;0.50;99.90
29813;DHT22;16707;48.106;11.548;2023-12-07T04:25:20;0.40;99.90
29813;DHT22;16707;48.106;11.548;2023-12-07T04:27:49;0.20;99.90
29813;DHT22;16707;48.106;11.548;2023-12-07T04:30:16;0.00;99.90
29813;DHT22;16707;48.106;11.548;2023-12-07T04:32:42;-0.10;99.90
29813;DHT22;16707;48.106;11.548;2023-12-07T04:35:09;-0.10;99.90
29813;DHT22;16707;48.106;11.548;2023-12-07T04:37:36;-0.10;99.90
29813;DHT22;16707;48.106;11.548;2023-12-07T04:40:03;-0.20;99.90
29813;DHT22;16707;48.106;11.548;2023-12-07T04:42:30;-0.20;99.90
29813;DHT22;16707;48.106;11.548;2023-12-07T04:44:58;-0.20;99.90
29813;DHT22;16707;48.106;11.548;2023-12-07T04:47:25;-0.10;99.90
29813;DHT22;16707;48.106;11.548;2023-12-07T04:49:52;0.00;99.90
29813;DHT22;16707;48.106;11.548;2023-12-07T04:52:18;0.10;99.90
29813;DHT22;16707;48.106;11.548;2023-12-07T04:54:47;0.30;99.90
29813;DHT22;16707;48.106;11.548;2023-12-07T04:57:14;0.40;99.90
29813;DHT22;16707;48.106;11.548;2023-12-07T04:59:41;0.60;99.90
29813;DHT22;16707;48.106;11.548;2023-12-07T05:02:13;0.50;99.90
29813;DHT22;16707;48.106;11.548;2023-12-07T05:04:40;0.60;99.90
29813;DHT22;16707;48.106;11.548;2023-12-07T05:07:07;0.60;99.90
29813;DHT22;16707;48.106;11.548;2023-12-07T05:09:34;0.60;99.90
29813;DHT22;16707;48.106;11.548;2023-12-07T05:12:00;0.50;99.90
29813;DHT22;16707;48.106;11.548;2023-12-07T05:14:27;0.50;99.90
29813;DHT22;16707;48.106;11.548;2023-12-07T05:16:54;0.40;99.90
29813;DHT22;16707;48.106;11.548;2023-12-07T05:19:22;0.30;99.90
29813;DHT22;16707;48.106;11.548;2023-12-07T05:21:49;0.20;99.90
29813;DHT22;16707;48.106;11.548;2023-12-07T05:24:17;0.10;99.90
29813;DHT22;16707;48.106;11.548;2023-12-07T05:26:44;0.00;99.90
29813;DHT22;16707;48.106;11.548;2023-12-07T05:29:11;0.00;99.90
29813;DHT22;16707;48.106;11.548;2023-12-07T05:31:38;0.20;99.90
29813;DHT22;16707;48.106;11.548;2023-12-07T05:34:05;0.20;99.90
29813;DHT22;16707;48.106;11.548;2023-12-07T05:36:34;0.20;99.90
29813;DHT22;16707;48.106;11.548;2023-12-07T05:39:01;0.10;99.90
29813;DHT22;16707;48.106;11.548;2023-12-07T05:41:27;0.10;99.90
29813;DHT22;16707;48.106;11.548;2023-12-07T05:43:54;0.00;99.90
29813;DHT22;16707;48.106;11.548;2023-12-07T05:46:21;-0.10;99.90
29813;DHT22;16707;48.106;11.548;2023-12-07T05:48:48;-0.20;99.90
29813;DHT22;16707;48.106;11.548;2023-12-07T05:51:15;-0.40;99.90
29813;DHT22;16707;48.106;11.548;2023-12-07T05:53:43;-0.50;99.90
29813;DHT22;16707;48.106;11.548;2023-12-07T05:56:10;-0.50;99.90
29813;DHT22;16707;48.106;11.548;2023-12-07T05:58:37;-0.60;99.90
29813;DHT22;16707;48.106;11.548;2023-12-07T06:01:04;-0.60;99.90
29813;DHT22;16707;48.106;11.548;2023-12-07T06:03:33;-0.80;99.90
29813;DHT22;16707;48.106;11.548;2023-12-07T06:06:03;-0.90;99.90
29813;DHT22;16707;48.106;11.548;2023-12-07T06:08:29;-1.00;99.90
29813;DHT22;16707;48.106;11.548;2023-12-07T06:10:57;-1.10;99.90
29813;DHT22;16707;48.106;11.548;2023-12-07T06:13:24;-1.10;99.90
29813;DHT22;16707;48.106;11.548;2023-12-07T06:15:51;-1.10;99.90
29813;DHT22;16707;48.106;11.548;2023-12-07T06:18:18;-1.10;99.90
29813;DHT22;16707;48.106;11.548;2023-12-07T06:20:45;-1.20;99.90
29813;DHT22;16707;48.106;11.548;2023-12-07T06:23:11;-1.20;99.90
29813;DHT22;16707;48.106;11.548;2023-12-07T06:25:38;-1.30;99.90
29813;DHT22;16707;48.106;11.548;2023-12-07T06:28:07;-1.20;99.90
29813;DHT22;16707;48.106;11.548;2023-12-07T06:30:33;-1.30;99.90
29813;DHT22;16707;48.106;11.548;2023-12-07T06:33:02;-1.30;99.90
29813;DHT22;16707;48.106;11.548;2023-12-07T06:35:28;-1.30;99.90
29813;DHT22;16707;48.106;11.548;2023-12-07T06:37:56;-1.20;99.90
29813;DHT22;16707;48.106;11.548;2023-12-07T06:40:22;-0.80;99.90
29813;DHT22;16707;48.106;11.548;2023-12-07T06:42:49;-0.50;99.90
29813;DHT22;16707;48.106;11.548;2023-12-07T06:45:17;-0.50;99.90
29813;DHT22;16707;48.106;11.548;2023-12-07T06:47:44;-0.60;99.90
29813;DHT22;16707;48.106;11.548;2023-12-07T06:50:13;-0.80;99.90
29813;DHT22;16707;48.106;11.548;2023-12-07T06:52:40;-0.90;99.90
29813;DHT22;16707;48.106;11.548;2023-12-07T06:55:07;-1.00;99.90
29813;DHT22;16707;48.106;11.548;2023-12-07T06:57:35;-1.20;99.90
29813;DHT22;16707;48.106;11.548;2023-12-07T07:00:02;-1.20;99.90
29813;DHT22;16707;48.106;11.548;2023-12-07T07:02:32;-1.20;99.90
29813;DHT22;16707;48.106;11.548;2023-12-07T07:04:59;-1.10;99.90
29813;DHT22;16707;48.106;11.548;2023-12-07T07:07:26;-1.10;99.90
29813;DHT22;16707;48.106;11.548;2023-12-07T07:09:56;-1.10;99.90
29813;DHT22;16707;48.106;11.548;2023-12-07T07:12:24;-1.00;99.90
29813;DHT22;16707;48.106;11.548;2023-12-07T07:14:50;-1.00;99.90
29813;DHT22;16707;48.106;11.548;2023-12-07T07:17:17;-0.90;99.90
29813;DHT22;16707;48.106;11.548;2023-12-07T07:19:46;-0.70;99.90
29813;DHT22;16707;48.106;11.548;2023-12-07T07:22:12;-0.80;99.90
29813;DHT22;16707;48.106;11.548;2023-12-07T07:24:39;-0.80;99.90
29813;DHT22;16707;48.106;11.548;2023-12-07T07:27:06;-0.70;99.90
29813;DHT22;16707;48.106;11.548;2023-12-07T07:29:33;-0.70;99.90
29813;DHT22;16707;48.106;11.548;2023-12-07T07:31:59;-0.60;99.90
29813;DHT22;16707;48.106;11.548;2023-12-07T07:34:26;-0.60;99.90
29813;DHT22;16707;48.106;11.548;2023-12-07T07:36:55;-0.50;99.90
29813;DHT22;16707;48.106;11.548;2023-12-07T07:39:21;-0.40;99.90
29813;DHT22;16707;48.106;11.548;2023-12-07T07:41:48;-0.30;99.90
29813;DHT22;16707;48.106;11.548;2023-12-07T07:44:15;-0.20;99.90
29813;DHT22;16707;48.106;11.548;2023-12-07T07:46:42;-0.10;99.90
29813;DHT22;16707;48.106;11.548;2023-12-07T07:49:09;0.10;99.90
29813;DHT22;16707;48.106;11.548;2023-12-07T07:51:35;0.00;99.90
29813;DHT22;16707;48.106;11.548;2023-12-07T07:54:05;0.10;99.90
29813;DHT22;16707;48.106;11.548;2023-12-07T07:56:32;0.20;99.90
29813;DHT22;16707;48.106;11.548;2023-12-07T07:58:59;0.20;99.90
29813;DHT22;16707;48.106;11.548;2023-12-07T08:01:26;0.30;99.90
29813;DHT22;16707;48.106;11.548;2023-12-07T08:03:52;0.40;99.90
29813;DHT22;16707;48.106;11.548;2023-12-07T08:06:20;0.50;99.90
29813;DHT22;16707;48.106;11.548;2023-12-07T08:08:46;0.50;99.90
29813;DHT22;16707;48.106;11.548;2023-12-07T08:11:16;0.50;99.90
29813;DHT22;16707;48.106;11.548;2023-12-07T08:13:43;0.60;99.90
29813;DHT22;16707;48.106;11.548;2023-12-07T08:16:09;0.70;99.90
29813;DHT22;16707;48.106;11.548;2023-12-07T08:18:36;0.80;99.90
29813;DHT22;16707;48.106;11.548;2023-12-07T08:21:03;1.00;99.90
29813;DHT22;16707;48.106;11.548;2023-12-07T08:23:33;1.00;99.90
29813;DHT22;16707;48.106;11.548;2023-12-07T08:26:00;1.10;99.90
29813;DHT22;16707;48.106;11.548;2023-12-07T08:28:29;1.20;99.90
29813;DHT22;16707;48.106;11.548;2023-12-07T08:30:55;1.40;99.90
29813;DHT22;16707;48.106;11.548;2023-12-07T08:33:23;1.50;99.90
29813;DHT22;16707;48.106;11.548;2023-12-07T08:35:49;1.50;99.90
29813;DHT22;16707;48.106;11.548;2023-12-07T08:38:20;1.60;99.90
29813;DHT22;16707;48.106;11.548;2023-12-07T08:40:47;1.70;99.90
29813;DHT22;16707;48.106;11.548;2023-12-07T08:43:14;1.80;99.90
29813;DHT22;16707;48.106;11.548;2023-12-07T08:45:42;1.80;99.90
29813;DHT22;16707;48.106;11.548;2023-12-07T08:48:08;2.00;99.90
29813;DHT22;16707;48.106;11.548;2023-12-07T08:50:35;2.00;99.90
29813;DHT22;16707;48.106;11.548;2023-12-07T08:53:02;2.10;99.90
29813;DHT22;16707;48.106;11.548;2023-12-07T08:55:30;2.20;99.90
29813;DHT22;16707;48.106;11.548;2023-12-07T08:57:57;2.40;99.90
29813;DHT22;16707;48.106;11.548;2023-12-07T09:00:25;2.50;99.90
29813;DHT22;16707;48.106;11.548;2023-12-07T09:02:53;2.70;99.90
29813;DHT22;16707;48.106;11.548;2023-12-07T09:05:19;2.80;99.90
29813;DHT22;16707;48.106;11.548;2023-12-07T09:07:46;2.90;99.90
29813;DHT22;16707;48.106;11.548;2023-12-07T09:10:13;3.10;99.90
29813;DHT22;16707;48.106;11.548;2023-12-07T09:12:40;3.10;99.90
29813;DHT22;16707;48.106;11.548;2023-12-07T09:15:07;3.30;99.90
29813;DHT22;16707;48.106;11.548;2023-12-07T09:17:35;3.40;99.90
29813;DHT22;16707;48.106;11.548;2023-12-07T09:20:05;3.40;99.90
29813;DHT22;16707;48.106;11.548;2023-12-07T09:22:37;3.50;99.90
29813;DHT22;16707;48.106;11.548;2023-12-07T09:25:04;3.70;99.90
29813;DHT22;16707;48.106;11.548;2023-12-07T09:27:33;3.70;99.90
29813;DHT22;16707;48.106;11.548;2023-12-07T09:30:00;3.70;99.90
29813;DHT22;16707;48.106;11.548;2023-12-07T09:32:27;3.70;99.90
29813;DHT22;16707;48.106;11.548;2023-12-07T09:34:54;3.60;99.90
29813;DHT22;16707;48.106;11.548;2023-12-07T09:37:22;4.00;99.90
29813;DHT22;16707;48.106;11.548;2023-12-07T09:39:48;4.20;99.90
29813;DHT22;16707;48.106;11.548;2023-12-07T09:42:14;4.50;99.90
29813;DHT22;16707;48.106;11.548;2023-12-07T09:44:41;4.50;99.90
29813;DHT22;16707;48.106;11.548;2023-12-07T09:47:08;4.60;99.90
29813;DHT22;16707;48.106;11.548;2023-12-07T09:49:37;4.60;99.90
29813;DHT22;16707;48.106;11.548;2023-12-07T09:52:04;4.60;99.90
29813;DHT22;16707;48.106;11.548;2023-12-07T09:54:34;4.70;99.90
29813;DHT22;16707;48.106;11.548;2023-12-07T09:57:01;4.60;99.90
29813;DHT22;16707;48.106;11.548;2023-12-07T09:59:28;4.60;99.90
29813;DHT22;16707;48.106;11.548;2023-12-07T10:01:55;4.90;99.00
29813;DHT22;16707;48.106;11.548;2023-12-07T10:04:22;4.90;99.00
29813;DHT22;16707;48.106;11.548;2023-12-07T10:06:51;4.80;99.90
29813;DHT22;16707;48.106;11.548;2023-12-07T10:09:19;5.10;98.60
29813;DHT22;16707;48.106;11.548;2023-12-07T10:11:48;5.10;97.40
29813;DHT22;16707;48.106;11.548;2023-12-07T10:14:14;5.30;95.00
29813;DHT22;16707;48.106;11.548;2023-12-07T10:16:52;5.30;88.90
29813;DHT22;16707;48.106;11.548;2023-12-07T10:19:18;5.40;84.60
29813;DHT22;16707;48.106;11.548;2023-12-07T10:21:47;5.40;80.40
29813;DHT22;16707;48.106;11.548;2023-12-07T10:24:15;5.30;81.10
29813;DHT22;16707;48.106;11.548;2023-12-07T10:26:42;5.50;81.50
29813;DHT22;16707;48.106;11.548;2023-12-07T10:29:11;5.50;87.30
29813;DHT22;16707;48.106;11.548;2023-12-07T10:31:38;5.30;89.60
29813;DHT22;16707;48.106;11.548;2023-12-07T10:34:05;5.20;90.20
29813;DHT22;16707;48.106;11.548;2023-12-07T10:36:32;5.10;88.20
29813;DHT22;16707;48.106;11.548;2023-12-07T10:38:59;5.10;83.70
29813;DHT22;16707;48.106;11.548;2023-12-07T10:41:25;5.20;82.90
29813;DHT22;16707;48.106;11.548;2023-12-07T10:43:53;5.10;84.60
29813;DHT22;16707;48.106;11.548;2023-12-07T10:46:21;5.20;83.10
29813;DHT22;16707;48.106;11.548;2023-12-07T10:48:48;5.20;85.10
29813;DHT22;16707;48.106;11.548;2023-12-07T10:51:17;5.10;87.40
29813;DHT22;16707;48.106;11.548;2023-12-07T10:53:45;5.20;86.80
29813;DHT22;16707;48.106;11.548;2023-12-07T10:56:13;5.20;85.60
29813;DHT22;16707;48.106;11.548;2023-12-07T10:58:42;5.20;84.10
29813;DHT22;16707;48.106;11.548;2023-12-07T11:01:10;5.00;84.00
29813;DHT22;16707;48.106;11.548;2023-12-07T11:03:40;5.10;83.40
29813;DHT22;16707;48.106;11.548;2023-12-07T11:06:08;5.20;83.90
29813;DHT22;16707;48.106;11.548;2023-12-07T11:08:36;5.30;82.80
29813;DHT22;16707;48.106;11.548;2023-12-07T11:11:04;5.50;82.60
29813;DHT22;16707;48.106;11.548;2023-12-07T11:13:33;5.70;80.60
29813;DHT22;16707;48.106;11.548;2023-12-07T11:16:02;6.00;78.10
29813;DHT22;16707;48.106;11.548;2023-12-07T11:18:29;6.20;76.90
29813;DHT22;16707;48.106;11.548;2023-12-07T11:20:57;6.20;77.60
29813;DHT22;16707;48.106;11.548;2023-12-07T11:23:26;6.20;75.50
29813;DHT22;16707;48.106;11.548;2023-12-07T11:25:53;6.00;75.60
29813;DHT22;16707;48.106;11.548;2023-12-07T11:28:33;5.90;75.10
29813;DHT22;16707;48.106;11.548;2023-12-07T11:31:00;5.90;74.70
29813;DHT22;16707;48.106;11.548;2023-12-07T11:33:28;5.90;74.60
29813;DHT22;16707;48.106;11.548;2023-12-07T11:36:06;6.00;74.80
29813;DHT22;16707;48.106;11.548;2023-12-07T11:38:33;6.10;75.10
29813;DHT22;16707;48.106;11.548;2023-12-07T11:41:00;5.80;69.90
29813;DHT22;16707;48.106;11.548;2023-12-07T11:46:12;5.70;74.00
29813;DHT22;16707;48.106;11.548;2023-12-07T11:48:45;5.70;71.50
29813;DHT22;16707;48.106;11.548;2023-12-07T11:51:15;5.70;73.20
29813;DHT22;16707;48.106;11.548;2023-12-07T11:53:41;5.70;71.60
29813;DHT22;16707;48.106;11.548;2023-12-07T11:56:09;5.60;71.60
29813;DHT22;16707;48.106;11.548;2023-12-07T11:58:37;5.60;72.20
29813;DHT22;16707;48.106;11.548;2023-12-07T12:01:04;5.60;73.10
29813;DHT22;16707;48.106;11.548;2023-12-07T12:03:32;5.60;74.80
29813;DHT22;16707;48.106;11.548;2023-12-07T12:05:59;5.60;74.80
29813;DHT22;16707;48.106;11.548;2023-12-07T12:08:27;5.60;75.80
29813;DHT22;16707;48.106;11.548;2023-12-07T12:10:54;5.50;76.00
29813;DHT22;16707;48.106;11.548;2023-12-07T12:13:25;5.50;76.60
29813;DHT22;16707;48.106;11.548;2023-12-07T12:15:52;5.50;75.70
29813;DHT22;16707;48.106;11.548;2023-12-07T12:18:19;5.50;76.00
29813;DHT22;16707;48.106;11.548;2023-12-07T12:20:46;5.50;75.60
29813;DHT22;16707;48.106;11.548;2023-12-07T12:23:12;5.60;75.60
29813;DHT22;16707;48.106;11.548;2023-12-07T12:25:40;5.70;76.70
29813;DHT22;16707;48.106;11.548;2023-12-07T12:28:07;5.60;77.80
29813;DHT22;16707;48.106;11.548;2023-12-07T12:30:35;5.60;77.80
29813;DHT22;16707;48.106;11.548;2023-12-07T12:33:02;5.60;78.10
29813;DHT22;16707;48.106;11.548;2023-12-07T12:35:28;5.50;76.20
29813;DHT22;16707;48.106;11.548;2023-12-07T12:37:55;5.40;75.90
29813;DHT22;16707;48.106;11.548;2023-12-07T12:40:22;5.40;77.60
29813;DHT22;16707;48.106;11.548;2023-12-07T12:42:52;5.40;78.80
29813;DHT22;16707;48.106;11.548;2023-12-07T12:45:19;5.30;77.50
29813;DHT22;16707;48.106;11.548;2023-12-07T12:47:46;5.30;77.90
29813;DHT22;16707;48.106;11.548;2023-12-07T12:52:58;5.30;76.20
29813;DHT22;16707;48.106;11.548;2023-12-07T12:55:25;5.30;75.60
29813;DHT22;16707;48.106;11.548;2023-12-07T12:57:55;5.20;76.30
29813;DHT22;16707;48.106;11.548;2023-12-07T13:00:22;5.30;76.90
29813;DHT22;16707;48.106;11.548;2023-12-07T13:02:48;5.20;75.50
29813;DHT22;16707;48.106;11.548;2023-12-07T13:05:15;5.10;76.60
29813;DHT22;16707;48.106;11.548;2023-12-07T13:07:43;5.00;77.70
29813;DHT22;16707;48.106;11.548;2023-12-07T13:10:10;5.00;78.00
29813;DHT22;16707;48.106;11.548;2023-12-07T13:12:36;5.00;80.20
29813;DHT22;16707;48.106;11.548;2023-12-07T13:15:05;4.90;82.10
29813;DHT22;16707;48.106;11.548;2023-12-07T13:17:32;5.00;83.00
29813;DHT22;16707;48.106;11.548;2023-12-07T13:19:58;5.00;82.00
29813;DHT22;16707;48.106;11.548;2023-12-07T13:22:25;4.80;82.50
29813;DHT22;16707;48.106;11.548;2023-12-07T13:24:52;4.70;83.50
29813;DHT22;16707;48.106;11.548;2023-12-07T13:27:19;4.80;82.60
29813;DHT22;16707;48.106;11.548;2023-12-07T13:29:45;4.70;82.30
29813;DHT22;16707;48.106;11.548;2023-12-07T13:32:13;4.80;82.40
29813;DHT22;16707;48.106;11.548;2023-12-07T13:34:41;4.60;83.20
29813;DHT22;16707;48.106;11.548;2023-12-07T13:37:07;4.60;83.70
29813;DHT22;16707;48.106;11.548;2023-12-07T13:39:34;4.60;85.30
29813;DHT22;16707;48.106;11.548;2023-12-07T13:42:02;4.60;85.60
29813;DHT22;16707;48.106;11.548;2023-12-07T13:44:29;4.70;85.80
29813;DHT22;16707;48.106;11.548;2023-12-07T13:46:57;4.60;85.10
29813;DHT22;16707;48.106;11.548;2023-12-07T13:49:26;4.60;85.60
29813;DHT22;16707;48.106;11.548;2023-12-07T13:51:53;4.50;85.40
29813;DHT22;16707;48.106;11.548;2023-12-07T13:54:20;4.40;85.50
29813;DHT22;16707;48.106;11.548;2023-12-07T13:56:47;4.40;85.50
29813;DHT22;16707;48.106;11.548;2023-12-07T13:59:14;4.30;85.90
29813;DHT22;16707;48.106;11.548;2023-12-07T14:01:41;4.40;85.60
29813;DHT22;16707;48.106;11.548;2023-12-07T14:04:07;4.20;84.10
29813;DHT22;16707;48.106;11.548;2023-12-07T14:06:36;4.30;85.10
29813;DHT22;16707;48.106;11.548;2023-12-07T14:09:03;4.50;84.50
29813;DHT22;16707;48.106;11.548;2023-12-07T14:11:30;4.50;84.10
29813;DHT22;16707;48.106;11.548;2023-12-07T14:13:57;4.40;84.60
29813;DHT22;16707;48.106;11.548;2023-12-07T14:16:24;4.20;85.70
29813;DHT22;16707;48.106;11.548;2023-12-07T14:18:50;4.10;86.00
29813;DHT22;16707;48.106;11.548;2023-12-07T14:21:20;4.00;87.00
29813;DHT22;16707;48.106;11.548;2023-12-07T14:23:49;3.80;88.20
29813;DHT22;16707;48.106;11.548;2023-12-07T14:26:19;3.70;90.00
29813;DHT22;16707;48.106;11.548;2023-12-07T14:28:46;3.60;89.50
29813;DHT22;16707;48.106;11.548;2023-12-07T14:31:14;3.50;89.80
29813;DHT22;16707;48.106;11.548;2023-12-07T14:33:42;3.40;90.70
29813;DHT22;16707;48.106;11.548;2023-12-07T14:36:10;3.20;91.60
29813;DHT22;16707;48.106;11.548;2023-12-07T14:38:38;3.30;91.20
29813;DHT22;16707;48.106;11.548;2023-12-07T14:41:06;3.20;90.90
29813;DHT22;16707;48.106;11.548;2023-12-07T14:43:33;3.10;91.30
29813;DHT22;16707;48.106;11.548;2023-12-07T14:46:00;2.90;91.80
29813;DHT22;16707;48.106;11.548;2023-12-07T14:48:27;2.90;92.10
29813;DHT22;16707;48.106;11.548;2023-12-07T14:50:54;2.90;92.30
29813;DHT22;16707;48.106;11.548;2023-12-07T14:53:20;2.80;92.40
29813;DHT22;16707;48.106;11.548;2023-12-07T14:55:48;2.70;93.10
29813;DHT22;16707;48.106;11.548;2023-12-07T14:58:18;2.50;93.70
29813;DHT22;16707;48.106;11.548;2023-12-07T15:00:45;2.40;94.30
29813;DHT22;16707;48.106;11.548;2023-12-07T15:03:11;2.50;94.50
29813;DHT22;16707;48.106;11.548;2023-12-07T15:05:38;2.40;94.80
29813;DHT22;16707;48.106;11.548;2023-12-07T15:08:06;2.30;95.40
29813;DHT22;16707;48.106;11.548;2023-12-07T15:10:33;2.20;95.60
29813;DHT22;16707;48.106;11.548;2023-12-07T15:12:59;2.30;95.90
29813;DHT22;16707;48.106;11.548;2023-12-07T15:15:28;2.10;96.20
29813;DHT22;16707;48.106;11.548;2023-12-07T15:17:55;1.90;96.60
29813;DHT22;16707;48.106;11.548;2023-12-07T15:20:22;1.90;97.40
29813;DHT22;16707;48.106;11.548;2023-12-07T15:22:49;1.80;97.60
29813;DHT22;16707;48.106;11.548;2023-12-07T15:25:16;1.80;97.60
29813;DHT22;16707;48.106;11.548;2023-12-07T15:27:43;1.70;98.00
29813;DHT22;16707;48.106;11.548;2023-12-07T15:30:12;1.60;98.10
29813;DHT22;16707;48.106;11.548;2023-12-07T15:32:40;1.50;98.40
29813;DHT22;16707;48.106;11.548;2023-12-07T15:35:08;1.50;98.50